createdAt,value
2018-02-05T00:03:35.925Z,22
2018-02-05T00:13:36.141Z,20
2018-02-05T00:23:36.040Z,20
2018-02-05T00:33:35.944Z,19
2018-02-05T00:43:36.272Z,20
2018-02-05T00:53:35.948Z,18
2018-02-05T01:03:36.014Z,18
2018-02-05T01:13:36.078Z,19
2018-02-05T01:23:36.135Z,19
2018-02-05T01:33:36.101Z,21
2018-02-05T01:43:35.947Z,18
2018-02-05T01:53:36.059Z,19
2018-02-05T02:03:37.612Z,19
2018-02-05T02:13:36.050Z,21
2018-02-05T02:23:36.062Z,18
2018-02-05T02:33:36.134Z,19
2018-02-05T02:43:36.040Z,18
2018-02-05T02:53:36.121Z,18
2018-02-05T03:03:36.073Z,19
2018-02-05T03:13:36.043Z,20
2018-02-05T03:23:36.040Z,20
2018-02-05T03:33:36.047Z,18
2018-02-05T03:43:36.150Z,19
2018-02-05T03:53:36.045Z,19
2018-02-05T04:03:36.169Z,18
2018-02-05T04:13:36.140Z,18
2018-02-05T04:23:36.160Z,17
2018-02-05T04:33:36.060Z,16
2018-02-05T04:43:36.215Z,16
2018-02-05T04:53:36.154Z,15
2018-02-05T05:03:36.139Z,18
2018-02-05T05:13:36.184Z,15
2018-02-05T05:23:36.136Z,18
2018-02-05T05:33:36.169Z,17
2018-02-05T05:43:37.389Z,18
2018-02-05T05:53:36.194Z,16
2018-02-05T06:03:36.197Z,18
2018-02-05T06:13:36.268Z,17
2018-02-05T06:23:36.200Z,18
2018-02-05T06:33:36.129Z,19
2018-02-05T06:43:36.109Z,19
2018-02-05T06:53:36.154Z,17
2018-02-05T07:03:36.303Z,18
2018-02-05T07:13:36.262Z,18
2018-02-05T07:23:36.258Z,16
2018-02-05T07:33:36.251Z,17
2018-02-05T07:43:36.641Z,15
2018-02-05T07:53:36.244Z,17
2018-02-05T08:03:36.370Z,15
2018-02-05T08:13:36.275Z,16
2018-02-05T08:23:36.202Z,16
2018-02-05T08:33:36.365Z,15
2018-02-05T08:43:36.297Z,16
2018-02-05T08:53:36.886Z,18
2018-02-05T09:03:37.210Z,18
2018-02-05T09:13:36.643Z,19
2018-02-05T09:23:36.506Z,18
2018-02-05T09:33:36.499Z,18
2018-02-05T09:43:36.355Z,19
2018-02-05T09:53:36.460Z,18
2018-02-05T10:03:36.373Z,18
2018-02-05T10:13:36.569Z,18
2018-02-05T10:23:36.473Z,20
2018-02-05T10:33:36.405Z,19
2018-02-05T10:43:36.638Z,18
2018-02-05T10:53:36.329Z,18
2018-02-05T11:03:36.464Z,18
2018-02-05T11:13:36.338Z,15
2018-02-05T11:23:36.606Z,19
2018-02-05T11:33:36.393Z,17
2018-02-05T11:43:36.554Z,17
2018-02-05T11:53:36.447Z,18
2018-02-05T12:03:36.648Z,14
2018-02-05T12:13:36.519Z,14
2018-02-05T12:23:36.984Z,13
2018-02-05T12:33:36.655Z,13
2018-02-05T12:43:36.614Z,12
2018-02-05T12:53:36.551Z,13
2018-02-05T13:03:36.630Z,14
2018-02-05T13:13:36.589Z,15
2018-02-05T13:23:36.668Z,15
2018-02-05T13:40:05.523Z,13
2018-02-05T13:43:37.291Z,16
2018-02-05T13:53:36.590Z,15
2018-02-05T14:03:36.558Z,13
2018-02-05T14:13:36.542Z,13
2018-02-05T14:23:36.638Z,14
2018-02-05T14:33:36.662Z,15
2018-02-05T14:43:36.644Z,13
2018-02-05T14:53:36.706Z,13
2018-02-05T15:03:36.590Z,14
2018-02-05T15:13:37.050Z,15
2018-02-05T15:23:36.877Z,16
2018-02-05T15:33:36.712Z,13
2018-02-05T15:43:36.682Z,14
2018-02-05T15:53:36.710Z,14
2018-02-05T16:03:36.982Z,15
2018-02-05T16:13:39.152Z,16
2018-02-05T16:23:36.816Z,13
2018-02-05T16:33:36.676Z,16
2018-02-05T16:43:36.695Z,15
2018-02-05T16:53:38.716Z,14
2018-02-05T17:03:36.930Z,13
2018-02-05T17:13:36.705Z,14
2018-02-05T17:23:37.689Z,16
2018-02-05T17:33:37.070Z,18
2018-02-05T17:43:37.104Z,15
2018-02-05T17:53:36.808Z,16
2018-02-05T18:03:36.792Z,17
2018-02-05T18:13:37.144Z,15
2018-02-05T18:23:36.838Z,15
2018-02-05T18:33:37.111Z,17
2018-02-05T18:43:37.581Z,15
2018-02-05T18:53:36.963Z,16
2018-02-05T19:03:37.543Z,16
2018-02-05T19:13:37.021Z,16
2018-02-05T19:23:37.024Z,16
2018-02-05T19:33:36.844Z,15
2018-02-05T19:43:36.810Z,16
2018-02-05T19:53:37.267Z,14
2018-02-05T20:03:36.925Z,14
2018-02-05T20:13:36.988Z,14
2018-02-05T20:23:36.990Z,16
2018-02-05T20:33:36.924Z,14
2018-02-05T20:43:37.259Z,17
2018-02-05T20:53:37.015Z,16
2018-02-05T21:03:37.421Z,16
2018-02-05T21:13:38.303Z,21
2018-02-05T21:23:37.175Z,15
2018-02-05T21:33:37.011Z,17
2018-02-05T21:43:37.163Z,16
2018-02-05T21:53:39.297Z,18
2018-02-05T22:03:37.525Z,18
2018-02-05T22:13:36.979Z,17
2018-02-05T22:23:36.979Z,16
2018-02-05T22:33:36.988Z,15
2018-02-05T22:43:36.991Z,16
2018-02-05T22:53:36.983Z,15
2018-02-05T23:03:37.076Z,16
2018-02-05T23:13:36.961Z,15
2018-02-05T23:23:37.312Z,15
2018-02-05T23:33:37.329Z,13
2018-02-05T23:43:37.221Z,13
2018-02-05T23:53:37.304Z,13
